sensor_id;sensor_type;location;lat;lon;timestamp;P1;durP1;ratioP1;P2;durP2;ratioP2
47896;SDS011;39629;51.400;5.494;2022-08-11T00:01:54;2.10;;;1.38;;
47896;SDS011;39629;51.400;5.494;2022-08-11T00:06:58;3.10;;;1.48;;
47896;SDS011;39629;51.400;5.494;2022-08-11T00:12:04;3.88;;;1.60;;
47896;SDS011;39629;51.400;5.494;2022-08-11T00:17:14;4.38;;;1.83;;
47896;SDS011;39629;51.400;5.494;2022-08-11T00:22:20;2.85;;;1.55;;
47896;SDS011;39629;51.400;5.494;2022-08-11T00:27:30;1.80;;;1.25;;
47896;SDS011;39629;51.400;5.494;2022-08-11T00:32:33;4.72;;;1.50;;
47896;SDS011;39629;51.400;5.494;2022-08-11T00:37:38;4.38;;;1.60;;
47896;SDS011;39629;51.400;5.494;2022-08-11T00:42:49;2.50;;;1.63;;
47896;SDS011;39629;51.400;5.494;2022-08-11T00:53:11;3.55;;;1.40;;
47896;SDS011;39629;51.400;5.494;2022-08-11T01:04:10;2.50;;;1.30;;
47896;SDS011;39629;51.400;5.494;2022-08-11T01:09:29;3.65;;;1.27;;
47896;SDS011;39629;51.400;5.494;2022-08-11T01:20:31;3.20;;;2.13;;
47896;SDS011;39629;51.400;5.494;2022-08-11T01:26:21;3.47;;;1.33;;
47896;SDS011;39629;51.400;5.494;2022-08-11T01:31:55;3.30;;;1.60;;
47896;SDS011;39629;51.400;5.494;2022-08-11T01:37:14;2.10;;;1.50;;
47896;SDS011;39629;51.400;5.494;2022-08-11T01:48:33;2.83;;;1.55;;
47896;SDS011;39629;51.400;5.494;2022-08-11T01:53:46;2.53;;;1.50;;
47896;SDS011;39629;51.400;5.494;2022-08-11T01:58:56;3.28;;;1.73;;
47896;SDS011;39629;51.400;5.494;2022-08-11T02:04:08;2.58;;;1.48;;
47896;SDS011;39629;51.400;5.494;2022-08-11T02:09:23;3.75;;;1.70;;
47896;SDS011;39629;51.400;5.494;2022-08-11T02:14:36;2.63;;;1.42;;
47896;SDS011;39629;51.400;5.494;2022-08-11T02:19:48;2.53;;;1.48;;
47896;SDS011;39629;51.400;5.494;2022-08-11T02:25:19;2.75;;;1.50;;
47896;SDS011;39629;51.400;5.494;2022-08-11T02:30:24;4.00;;;1.70;;
47896;SDS011;39629;51.400;5.494;2022-08-11T02:35:35;5.10;;;1.70;;
47896;SDS011;39629;51.400;5.494;2022-08-11T02:40:48;2.45;;;1.60;;
47896;SDS011;39629;51.400;5.494;2022-08-11T02:46:00;4.40;;;1.70;;
47896;SDS011;39629;51.400;5.494;2022-08-11T02:51:18;2.38;;;1.67;;
47896;SDS011;39629;51.400;5.494;2022-08-11T02:56:30;4.25;;;1.63;;
47896;SDS011;39629;51.400;5.494;2022-08-11T03:01:44;2.88;;;1.77;;
47896;SDS011;39629;51.400;5.494;2022-08-11T03:06:55;3.13;;;1.63;;
47896;SDS011;39629;51.400;5.494;2022-08-11T03:12:03;2.60;;;1.67;;
47896;SDS011;39629;51.400;5.494;2022-08-11T03:17:29;2.72;;;1.80;;
47896;SDS011;39629;51.400;5.494;2022-08-11T03:22:39;2.65;;;1.70;;
47896;SDS011;39629;51.400;5.494;2022-08-11T03:27:53;3.43;;;1.97;;
47896;SDS011;39629;51.400;5.494;2022-08-11T03:33:05;2.88;;;1.75;;
47896;SDS011;39629;51.400;5.494;2022-08-11T03:38:35;5.28;;;1.90;;
47896;SDS011;39629;51.400;5.494;2022-08-11T03:43:53;4.38;;;1.80;;
47896;SDS011;39629;51.400;5.494;2022-08-11T03:49:04;2.67;;;1.70;;
47896;SDS011;39629;51.400;5.494;2022-08-11T03:54:27;3.67;;;1.80;;
47896;SDS011;39629;51.400;5.494;2022-08-11T03:59:53;5.80;;;1.88;;
47896;SDS011;39629;51.400;5.494;2022-08-11T04:10:57;2.25;;;1.50;;
47896;SDS011;39629;51.400;5.494;2022-08-11T04:27:45;3.38;;;2.10;;
47896;SDS011;39629;51.400;5.494;2022-08-11T04:33:13;3.45;;;1.90;;
47896;SDS011;39629;51.400;5.494;2022-08-11T04:38:51;4.80;;;1.90;;
47896;SDS011;39629;51.400;5.494;2022-08-11T05:01:26;2.83;;;1.70;;
47896;SDS011;39629;51.400;5.494;2022-08-11T05:06:53;4.60;;;2.13;;
47896;SDS011;39629;51.400;5.494;2022-08-11T05:12:10;5.75;;;2.00;;
47896;SDS011;39629;51.400;5.494;2022-08-11T05:17:22;2.28;;;1.50;;
47896;SDS011;39629;51.400;5.494;2022-08-11T05:22:51;5.93;;;2.10;;
47896;SDS011;39629;51.400;5.494;2022-08-11T05:28:11;3.20;;;2.25;;
47896;SDS011;39629;51.400;5.494;2022-08-11T05:33:34;3.63;;;2.40;;
47896;SDS011;39629;51.400;5.494;2022-08-11T05:39:03;7.68;;;2.30;;
47896;SDS011;39629;51.400;5.494;2022-08-11T05:44:30;6.45;;;2.30;;
47896;SDS011;39629;51.400;5.494;2022-08-11T05:49:52;8.05;;;1.92;;
47896;SDS011;39629;51.400;5.494;2022-08-11T05:55:13;4.28;;;2.42;;
47896;SDS011;39629;51.400;5.494;2022-08-11T06:00:40;6.05;;;2.72;;
47896;SDS011;39629;51.400;5.494;2022-08-11T06:05:42;3.75;;;2.30;;
47896;SDS011;39629;51.400;5.494;2022-08-11T06:10:45;7.55;;;2.88;;
47896;SDS011;39629;51.400;5.494;2022-08-11T06:15:48;4.53;;;2.40;;
47896;SDS011;39629;51.400;5.494;2022-08-11T06:20:53;7.35;;;2.90;;
47896;SDS011;39629;51.400;5.494;2022-08-11T06:25:58;4.43;;;2.65;;
47896;SDS011;39629;51.400;5.494;2022-08-11T06:36:04;5.28;;;2.60;;
47896;SDS011;39629;51.400;5.494;2022-08-11T06:41:16;7.72;;;2.80;;
47896;SDS011;39629;51.400;5.494;2022-08-11T06:46:33;4.85;;;2.85;;
47896;SDS011;39629;51.400;5.494;2022-08-11T06:51:37;6.13;;;2.60;;
47896;SDS011;39629;51.400;5.494;2022-08-11T06:56:40;9.02;;;2.60;;
47896;SDS011;39629;51.400;5.494;2022-08-11T07:02:04;8.02;;;2.80;;
47896;SDS011;39629;51.400;5.494;2022-08-11T07:07:25;5.93;;;2.83;;
47896;SDS011;39629;51.400;5.494;2022-08-11T07:13:09;8.00;;;2.50;;
47896;SDS011;39629;51.400;5.494;2022-08-11T07:18:34;5.15;;;2.63;;
47896;SDS011;39629;51.400;5.494;2022-08-11T07:23:55;4.72;;;2.95;;
47896;SDS011;39629;51.400;5.494;2022-08-11T07:29:19;7.60;;;2.75;;
47896;SDS011;39629;51.400;5.494;2022-08-11T07:34:23;6.50;;;3.13;;
47896;SDS011;39629;51.400;5.494;2022-08-11T07:39:30;4.65;;;2.53;;
47896;SDS011;39629;51.400;5.494;2022-08-11T07:44:34;5.03;;;2.60;;
47896;SDS011;39629;51.400;5.494;2022-08-11T07:55:17;5.68;;;2.50;;
47896;SDS011;39629;51.400;5.494;2022-08-11T08:00:22;6.03;;;2.70;;
47896;SDS011;39629;51.400;5.494;2022-08-11T08:05:41;5.32;;;2.70;;
47896;SDS011;39629;51.400;5.494;2022-08-11T08:11:02;8.48;;;2.60;;
47896;SDS011;39629;51.400;5.494;2022-08-11T08:16:23;4.45;;;2.03;;
47896;SDS011;39629;51.400;5.494;2022-08-11T08:21:43;5.47;;;2.25;;
47896;SDS011;39629;51.400;5.494;2022-08-11T08:26:46;5.53;;;2.30;;
47896;SDS011;39629;51.400;5.494;2022-08-11T08:32:03;3.78;;;2.13;;
47896;SDS011;39629;51.400;5.494;2022-08-11T08:37:07;8.52;;;2.10;;
47896;SDS011;39629;51.400;5.494;2022-08-11T08:42:09;5.78;;;2.20;;
47896;SDS011;39629;51.400;5.494;2022-08-11T08:47:14;5.70;;;2.17;;
47896;SDS011;39629;51.400;5.494;2022-08-11T08:52:19;5.18;;;2.08;;
47896;SDS011;39629;51.400;5.494;2022-08-11T08:57:25;3.75;;;2.10;;
47896;SDS011;39629;51.400;5.494;2022-08-11T09:02:30;4.07;;;2.10;;
47896;SDS011;39629;51.400;5.494;2022-08-11T09:07:32;5.00;;;2.00;;
47896;SDS011;39629;51.400;5.494;2022-08-11T09:12:34;5.03;;;2.10;;
47896;SDS011;39629;51.400;5.494;2022-08-11T09:17:41;3.83;;;2.42;;
47896;SDS011;39629;51.400;5.494;2022-08-11T09:22:45;3.25;;;2.10;;
47896;SDS011;39629;51.400;5.494;2022-08-11T09:28:08;5.32;;;1.90;;
47896;SDS011;39629;51.400;5.494;2022-08-11T09:33:13;3.92;;;2.00;;
47896;SDS011;39629;51.400;5.494;2022-08-11T09:38:17;7.97;;;2.70;;
47896;SDS011;39629;51.400;5.494;2022-08-11T09:43:39;6.00;;;2.35;;
47896;SDS011;39629;51.400;5.494;2022-08-11T09:49:06;6.90;;;2.35;;
47896;SDS011;39629;51.400;5.494;2022-08-11T09:54:08;3.08;;;2.05;;
47896;SDS011;39629;51.400;5.494;2022-08-11T09:59:09;3.03;;;2.00;;
47896;SDS011;39629;51.400;5.494;2022-08-11T10:04:13;2.67;;;2.00;;
47896;SDS011;39629;51.400;5.494;2022-08-11T10:09:17;4.15;;;2.10;;
47896;SDS011;39629;51.400;5.494;2022-08-11T10:14:20;4.82;;;1.80;;
47896;SDS011;39629;51.400;5.494;2022-08-11T10:19:42;5.00;;;2.03;;
47896;SDS011;39629;51.400;5.494;2022-08-11T10:24:47;2.58;;;1.67;;
47896;SDS011;39629;51.400;5.494;2022-08-11T10:30:06;4.13;;;1.67;;
47896;SDS011;39629;51.400;5.494;2022-08-11T10:35:29;4.10;;;1.67;;
47896;SDS011;39629;51.400;5.494;2022-08-11T10:40:32;3.95;;;1.80;;
47896;SDS011;39629;51.400;5.494;2022-08-11T10:50:55;4.15;;;1.60;;
47896;SDS011;39629;51.400;5.494;2022-08-11T10:56:13;2.30;;;1.60;;
47896;SDS011;39629;51.400;5.494;2022-08-11T11:01:36;3.75;;;1.70;;
47896;SDS011;39629;51.400;5.494;2022-08-11T11:06:45;4.38;;;1.65;;
47896;SDS011;39629;51.400;5.494;2022-08-11T11:11:52;4.53;;;1.73;;
47896;SDS011;39629;51.400;5.494;2022-08-11T11:17:14;2.20;;;1.70;;
47896;SDS011;39629;51.400;5.494;2022-08-11T11:22:39;4.05;;;1.60;;
47896;SDS011;39629;51.400;5.494;2022-08-11T11:27:59;3.72;;;1.65;;
47896;SDS011;39629;51.400;5.494;2022-08-11T11:33:31;4.55;;;1.50;;
47896;SDS011;39629;51.400;5.494;2022-08-11T11:38:51;2.40;;;1.58;;
47896;SDS011;39629;51.400;5.494;2022-08-11T11:43:55;2.95;;;1.50;;
47896;SDS011;39629;51.400;5.494;2022-08-11T11:48:58;1.63;;;1.50;;
47896;SDS011;39629;51.400;5.494;2022-08-11T11:54:07;4.90;;;1.60;;
47896;SDS011;39629;51.400;5.494;2022-08-11T11:59:10;3.30;;;2.15;;
47896;SDS011;39629;51.400;5.494;2022-08-11T12:04:30;2.30;;;1.50;;
47896;SDS011;39629;51.400;5.494;2022-08-11T12:09:37;2.97;;;1.40;;
47896;SDS011;39629;51.400;5.494;2022-08-11T12:14:40;1.75;;;1.50;;
47896;SDS011;39629;51.400;5.494;2022-08-11T12:24:44;2.28;;;1.60;;
47896;SDS011;39629;51.400;5.494;2022-08-11T12:30:07;3.78;;;1.70;;
47896;SDS011;39629;51.400;5.494;2022-08-11T12:35:09;3.17;;;1.80;;
47896;SDS011;39629;51.400;5.494;2022-08-11T12:40:18;3.05;;;1.70;;
47896;SDS011;39629;51.400;5.494;2022-08-11T12:45:42;2.63;;;1.60;;
47896;SDS011;39629;51.400;5.494;2022-08-11T12:50:44;2.28;;;1.70;;
47896;SDS011;39629;51.400;5.494;2022-08-11T12:56:10;3.78;;;1.50;;
47896;SDS011;39629;51.400;5.494;2022-08-11T13:01:31;3.38;;;1.83;;
47896;SDS011;39629;51.400;5.494;2022-08-11T13:06:50;3.70;;;1.88;;
47896;SDS011;39629;51.400;5.494;2022-08-11T13:11:54;2.30;;;1.60;;
47896;SDS011;39629;51.400;5.494;2022-08-11T13:17:13;6.10;;;2.17;;
47896;SDS011;39629;51.400;5.494;2022-08-11T13:22:25;3.38;;;1.60;;
47896;SDS011;39629;51.400;5.494;2022-08-11T13:27:29;3.17;;;1.75;;
47896;SDS011;39629;51.400;5.494;2022-08-11T13:32:31;3.53;;;1.70;;
47896;SDS011;39629;51.400;5.494;2022-08-11T13:37:32;5.63;;;1.80;;
47896;SDS011;39629;51.400;5.494;2022-08-11T13:42:36;3.95;;;1.90;;
47896;SDS011;39629;51.400;5.494;2022-08-11T13:47:39;2.70;;;1.60;;
47896;SDS011;39629;51.400;5.494;2022-08-11T13:52:42;3.85;;;1.90;;
47896;SDS011;39629;51.400;5.494;2022-08-11T13:57:50;2.17;;;1.52;;
47896;SDS011;39629;51.400;5.494;2022-08-11T14:02:53;2.47;;;1.65;;
47896;SDS011;39629;51.400;5.494;2022-08-11T14:07:58;3.17;;;1.73;;
47896;SDS011;39629;51.400;5.494;2022-08-11T14:13:06;4.80;;;1.52;;
47896;SDS011;39629;51.400;5.494;2022-08-11T14:18:28;2.33;;;1.70;;
47896;SDS011;39629;51.400;5.494;2022-08-11T14:23:34;4.43;;;2.60;;
47896;SDS011;39629;51.400;5.494;2022-08-11T14:28:40;3.30;;;1.58;;
47896;SDS011;39629;51.400;5.494;2022-08-11T14:33:43;5.10;;;1.40;;
47896;SDS011;39629;51.400;5.494;2022-08-11T14:38:45;2.67;;;1.45;;
47896;SDS011;39629;51.400;5.494;2022-08-11T14:43:49;2.05;;;1.45;;
47896;SDS011;39629;51.400;5.494;2022-08-11T14:49:11;5.28;;;1.52;;
47896;SDS011;39629;51.400;5.494;2022-08-11T14:54:14;2.22;;;1.48;;
47896;SDS011;39629;51.400;5.494;2022-08-11T14:59:35;3.53;;;1.67;;
47896;SDS011;39629;51.400;5.494;2022-08-11T15:04:37;2.65;;;1.60;;
47896;SDS011;39629;51.400;5.494;2022-08-11T15:09:39;2.67;;;1.52;;
47896;SDS011;39629;51.400;5.494;2022-08-11T15:14:44;5.20;;;2.05;;
47896;SDS011;39629;51.400;5.494;2022-08-11T15:20:05;2.00;;;1.40;;
47896;SDS011;39629;51.400;5.494;2022-08-11T15:25:27;2.28;;;1.52;;
47896;SDS011;39629;51.400;5.494;2022-08-11T15:30:34;3.55;;;1.73;;
47896;SDS011;39629;51.400;5.494;2022-08-11T15:35:55;5.82;;;2.08;;
47896;SDS011;39629;51.400;5.494;2022-08-11T15:41:16;3.38;;;1.70;;
47896;SDS011;39629;51.400;5.494;2022-08-11T15:46:39;2.40;;;1.65;;
47896;SDS011;39629;51.400;5.494;2022-08-11T15:51:44;3.60;;;1.60;;
47896;SDS011;39629;51.400;5.494;2022-08-11T15:56:50;3.78;;;1.65;;
47896;SDS011;39629;51.400;5.494;2022-08-11T16:01:55;6.70;;;1.80;;
47896;SDS011;39629;51.400;5.494;2022-08-11T16:07:16;5.05;;;1.73;;
47896;SDS011;39629;51.400;5.494;2022-08-11T16:12:25;5.05;;;1.90;;
47896;SDS011;39629;51.400;5.494;2022-08-11T16:17:33;4.55;;;1.70;;
47896;SDS011;39629;51.400;5.494;2022-08-11T16:22:37;3.65;;;1.80;;
47896;SDS011;39629;51.400;5.494;2022-08-11T16:27:44;5.70;;;1.67;;
47896;SDS011;39629;51.400;5.494;2022-08-11T16:32:49;3.70;;;1.67;;
47896;SDS011;39629;51.400;5.494;2022-08-11T16:37:53;6.72;;;1.63;;
47896;SDS011;39629;51.400;5.494;2022-08-11T16:43:14;4.88;;;1.58;;
47896;SDS011;39629;51.400;5.494;2022-08-11T16:48:36;2.78;;;1.50;;
47896;SDS011;39629;51.400;5.494;2022-08-11T16:53:41;5.30;;;1.55;;
47896;SDS011;39629;51.400;5.494;2022-08-11T16:58:44;3.47;;;1.50;;
47896;SDS011;39629;51.400;5.494;2022-08-11T17:04:11;3.00;;;1.42;;
47896;SDS011;39629;51.400;5.494;2022-08-11T17:09:39;3.13;;;1.48;;
47896;SDS011;39629;51.400;5.494;2022-08-11T17:14:59;1.70;;;1.45;;
47896;SDS011;39629;51.400;5.494;2022-08-11T17:20:06;3.22;;;1.40;;
47896;SDS011;39629;51.400;5.494;2022-08-11T17:25:14;2.42;;;1.42;;
47896;SDS011;39629;51.400;5.494;2022-08-11T17:30:18;3.65;;;1.33;;
47896;SDS011;39629;51.400;5.494;2022-08-11T17:35:22;1.90;;;1.52;;
47896;SDS011;39629;51.400;5.494;2022-08-11T17:40:32;2.42;;;1.58;;
47896;SDS011;39629;51.400;5.494;2022-08-11T17:45:38;2.53;;;1.50;;
47896;SDS011;39629;51.400;5.494;2022-08-11T17:51:02;1.77;;;1.35;;
47896;SDS011;39629;51.400;5.494;2022-08-11T17:56:05;3.70;;;1.60;;
47896;SDS011;39629;51.400;5.494;2022-08-11T18:01:28;2.65;;;1.50;;
47896;SDS011;39629;51.400;5.494;2022-08-11T18:06:34;3.92;;;1.67;;
47896;SDS011;39629;51.400;5.494;2022-08-11T18:11:36;2.22;;;1.50;;
47896;SDS011;39629;51.400;5.494;2022-08-11T18:16:55;2.33;;;1.45;;
47896;SDS011;39629;51.400;5.494;2022-08-11T18:22:17;3.78;;;1.83;;
47896;SDS011;39629;51.400;5.494;2022-08-11T18:27:41;2.10;;;1.40;;
47896;SDS011;39629;51.400;5.494;2022-08-11T18:33:02;4.20;;;1.80;;
47896;SDS011;39629;51.400;5.494;2022-08-11T18:38:26;2.78;;;1.50;;
47896;SDS011;39629;51.400;5.494;2022-08-11T18:43:47;3.28;;;1.70;;
47896;SDS011;39629;51.400;5.494;2022-08-11T18:49:10;4.85;;;1.50;;
47896;SDS011;39629;51.400;5.494;2022-08-11T18:54:34;3.50;;;1.63;;
47896;SDS011;39629;51.400;5.494;2022-08-11T18:59:55;4.77;;;1.80;;
47896;SDS011;39629;51.400;5.494;2022-08-11T19:05:19;4.43;;;1.90;;
47896;SDS011;39629;51.400;5.494;2022-08-11T19:10:40;3.90;;;1.90;;
47896;SDS011;39629;51.400;5.494;2022-08-11T19:16:01;4.28;;;1.70;;
47896;SDS011;39629;51.400;5.494;2022-08-11T19:21:23;2.83;;;1.48;;
47896;SDS011;39629;51.400;5.494;2022-08-11T19:26:46;4.35;;;1.90;;
47896;SDS011;39629;51.400;5.494;2022-08-11T19:32:08;3.38;;;1.90;;
47896;SDS011;39629;51.400;5.494;2022-08-11T19:37:28;6.88;;;1.90;;
47896;SDS011;39629;51.400;5.494;2022-08-11T19:42:49;3.15;;;1.63;;
47896;SDS011;39629;51.400;5.494;2022-08-11T19:48:09;2.88;;;1.90;;
47896;SDS011;39629;51.400;5.494;2022-08-11T19:53:29;5.30;;;1.92;;
47896;SDS011;39629;51.400;5.494;2022-08-11T19:58:52;2.65;;;1.95;;
47896;SDS011;39629;51.400;5.494;2022-08-11T20:04:12;5.43;;;1.83;;
47896;SDS011;39629;51.400;5.494;2022-08-11T20:09:31;5.07;;;1.80;;
47896;SDS011;39629;51.400;5.494;2022-08-11T20:14:53;4.18;;;2.05;;
47896;SDS011;39629;51.400;5.494;2022-08-11T20:20:14;2.40;;;1.73;;
47896;SDS011;39629;51.400;5.494;2022-08-11T20:25:35;2.30;;;1.80;;
47896;SDS011;39629;51.400;5.494;2022-08-11T20:30:56;3.08;;;2.10;;
47896;SDS011;39629;51.400;5.494;2022-08-11T20:36:15;4.97;;;2.00;;
47896;SDS011;39629;51.400;5.494;2022-08-11T20:41:34;2.90;;;1.80;;
47896;SDS011;39629;51.400;5.494;2022-08-11T20:46:56;2.42;;;2.00;;
47896;SDS011;39629;51.400;5.494;2022-08-11T20:52:16;2.15;;;1.60;;
47896;SDS011;39629;51.400;5.494;2022-08-11T20:57:37;3.78;;;2.30;;
47896;SDS011;39629;51.400;5.494;2022-08-11T21:02:59;5.97;;;2.90;;
47896;SDS011;39629;51.400;5.494;2022-08-11T21:08:18;4.90;;;2.72;;
47896;SDS011;39629;51.400;5.494;2022-08-11T21:13:39;5.05;;;2.90;;
47896;SDS011;39629;51.400;5.494;2022-08-11T21:19:03;6.78;;;3.58;;
47896;SDS011;39629;51.400;5.494;2022-08-11T21:24:30;4.90;;;3.38;;
47896;SDS011;39629;51.400;5.494;2022-08-11T21:29:50;5.82;;;2.60;;
47896;SDS011;39629;51.400;5.494;2022-08-11T21:35:11;6.53;;;2.45;;
47896;SDS011;39629;51.400;5.494;2022-08-11T21:40:31;5.43;;;2.60;;
47896;SDS011;39629;51.400;5.494;2022-08-11T21:45:52;3.45;;;2.70;;
47896;SDS011;39629;51.400;5.494;2022-08-11T21:51:15;5.80;;;3.20;;
47896;SDS011;39629;51.400;5.494;2022-08-11T21:56:34;3.28;;;2.50;;
47896;SDS011;39629;51.400;5.494;2022-08-11T22:01:55;6.00;;;2.90;;
47896;SDS011;39629;51.400;5.494;2022-08-11T22:07:17;4.53;;;2.53;;
47896;SDS011;39629;51.400;5.494;2022-08-11T22:12:37;4.60;;;2.50;;
47896;SDS011;39629;51.400;5.494;2022-08-11T22:17:56;5.25;;;3.00;;
47896;SDS011;39629;51.400;5.494;2022-08-11T22:23:17;3.65;;;2.42;;
47896;SDS011;39629;51.400;5.494;2022-08-11T22:28:37;6.03;;;2.78;;
47896;SDS011;39629;51.400;5.494;2022-08-11T22:33:56;3.85;;;2.30;;
47896;SDS011;39629;51.400;5.494;2022-08-11T22:39:17;3.17;;;2.10;;
47896;SDS011;39629;51.400;5.494;2022-08-11T22:44:37;3.00;;;2.40;;
47896;SDS011;39629;51.400;5.494;2022-08-11T22:49:56;4.00;;;2.20;;
47896;SDS011;39629;51.400;5.494;2022-08-11T22:55:17;3.50;;;2.55;;
47896;SDS011;39629;51.400;5.494;2022-08-11T23:00:38;3.28;;;2.22;;
47896;SDS011;39629;51.400;5.494;2022-08-11T23:05:58;3.25;;;2.72;;
47896;SDS011;39629;51.400;5.494;2022-08-11T23:11:19;4.70;;;2.25;;
47896;SDS011;39629;51.400;5.494;2022-08-11T23:16:39;3.05;;;1.92;;
47896;SDS011;39629;51.400;5.494;2022-08-11T23:21:59;4.78;;;2.25;;
47896;SDS011;39629;51.400;5.494;2022-08-11T23:27:21;4.45;;;2.53;;
47896;SDS011;39629;51.400;5.494;2022-08-11T23:32:42;3.40;;;2.53;;
47896;SDS011;39629;51.400;5.494;2022-08-11T23:38:03;4.30;;;2.40;;
47896;SDS011;39629;51.400;5.494;2022-08-11T23:43:25;5.50;;;2.60;;
47896;SDS011;39629;51.400;5.494;2022-08-11T23:48:44;4.90;;;2.50;;
47896;SDS011;39629;51.400;5.494;2022-08-11T23:54:04;4.70;;;2.30;;
47896;SDS011;39629;51.400;5.494;2022-08-11T23:59:26;3.15;;;2.30;;
